10:36
Airports
History
Links
Donate
Help keep this website running!
PayPal
Bitcoin
This page is community maintained. The information is intended for PC simulator navigation or reference.
Always use approved charts for navigation.
TNCB
Bonaire Flamingo
Bonaire Flamingo (TNCB)
Kralendijk, Bonaire,
(C)
Lat/Lng:12° 7' 51.77" N / 68° 16' 6.64" W
12.131046 / -68.268511
Elevation:20'ft / 6mMSL
ID / ICAO:TNCB
Runways:1
Longest:10-28
Asphalt 2,881m / 9,451ft
Controlled:Yes
METAR09:55 GMT 2017-12-18
Altimeter: 29.91
Visibility: 6.2 statute miles
Wind: 11 knots (from 080°)
Temp: 26°c / 79°f
Humidity: 83.6%

METAR: TNCB 180955Z AUTO 08011KT 9999 FEW020/// 26/23 Q1013

(Powered by phpweather)
Airport Radio Frequencies
Tower: 118.7
Nearby VORs <50NM
Nearby NDBs
Runway 10 / 28
Dimensions:2880.7 x 45.1m 9451' x 148'ft
Surface:Asphalt
Edge Lights:Medium intensity
Runway 10 [A]Runway 28 [B]
Heading:091°TH 271°TH
Lat:
Lng:
12° 7' 53.19"N
68° 16' 54.3"W
12° 7' 50.34"N
68° 15' 18.98"W
ALS:SSALF
User Notes and Comments
12° 7' 51.77" N / 68° 16' 6.64" W
Distance To
Airport ID:
Nearby Airports
(C) Curacao Hato 46.9 NM
TNCC ( WX ) W 274°
(U) PUERTO CUMAREBO 82.7 NM
SVRB WSW 238°
(U) PUNTA BRAVA 93.2 NM
SV04 S 183°
(C) JOSE LEONARDO CHIRINOS 107.6 NM
SVCR ( WX ) WSW 242°
(C) GENERAL BARTOLOME SALOM INTL 114.8 NM
SVPC ( WX ) S 173°
(C) LA BANANERA 114.9 NM
SVWB S 186°
(C) REINA BEATRIX INTL 120.6 NM
TNCA ( WX ) WNW 282°
VFR Chart
Flight Planning at SkyVector.com